Time;durP1;ratioP1;P1;durP2;ratioP2;P2;SDS_P1;SDS_P2;PMS_P1;PMS_P2;Temp;Humidity;BMP_temperature;BMP_pressure;BME280_temperature;BME280_humidity;BME280_pressure;Samples;Min_cycle;Max_cycle;Signal;HPM_P1;HPM_P2
2022/05/08 00:01:51;;;;;;;22.13;6.10;;;7.80;99.90;;;;;;5043984;28;20044;-81
2022/05/08 00:04:17;;;;;;;19.50;5.32;;;7.80;99.90;;;;;;5045123;28;20438;-80
2022/05/08 00:06:42;;;;;;;34.78;7.03;;;7.80;99.90;;;;;;5044992;28;20054;-82
2022/05/08 00:09:08;;;;;;;30.25;5.15;;;7.80;99.90;;;;;;5046585;28;20118;-80
2022/05/08 00:11:33;;;;;;;27.33;5.63;;;7.70;99.90;;;;;;5045474;28;20061;-81
2022/05/08 00:13:59;;;;;;;24.77;5.80;;;7.70;99.90;;;;;;5044509;28;20386;-81
2022/05/08 00:16:25;;;;;;;14.38;5.32;;;7.60;99.90;;;;;;5045709;28;20559;-81
2022/05/08 00:18:50;;;;;;;24.63;6.88;;;7.40;99.90;;;;;;5043680;28;20120;-82
2022/05/08 00:21:16;;;;;;;16.48;5.40;;;7.50;99.90;;;;;;5061282;28;20045;-83
2022/05/08 00:23:41;;;;;;;25.75;6.13;;;7.50;99.90;;;;;;5049462;28;20127;-82
2022/05/08 00:26:08;;;;;;;26.38;6.25;;;7.60;99.90;;;;;;5047718;28;20029;-78
2022/05/08 00:28:37;;;;;;;20.75;4.70;;;7.50;99.90;;;;;;5045888;28;20852;-82
2022/05/08 00:31:02;;;;;;;27.58;5.50;;;7.50;99.90;;;;;;5047258;28;20407;-80
2022/05/08 00:33:28;;;;;;;21.98;5.68;;;7.50;99.90;;;;;;5047633;28;20041;-81
2022/05/08 00:35:54;;;;;;;17.13;5.25;;;7.60;99.90;;;;;;5044702;28;20452;-81
2022/05/08 00:38:19;;;;;;;21.30;5.88;;;7.50;99.90;;;;;;5044662;28;20043;-79
2022/05/08 00:40:45;;;;;;;17.17;5.07;;;7.50;99.90;;;;;;5060421;28;20063;-82
2022/05/08 00:43:33;;;;;;;22.60;4.72;;;7.50;99.90;;;;;;5050295;28;20048;-81
2022/05/08 00:46:03;;;;;;;29.85;5.85;;;7.50;99.90;;;;;;5051309;28;20445;-81
2022/05/08 00:48:29;;;;;;;21.48;6.05;;;7.50;99.90;;;;;;5053156;28;20032;-82
2022/05/08 00:50:55;;;;;;;20.15;4.53;;;7.40;99.90;;;;;;5046817;28;20044;-82
2022/05/08 00:53:22;;;;;;;18.95;5.88;;;7.40;99.90;;;;;;5032052;28;20049;-82
2022/05/08 00:55:48;;;;;;;21.35;6.20;;;7.20;99.90;;;;;;5057917;28;20048;-82
2022/05/08 00:58:16;;;;;;;25.92;6.40;;;7.00;99.90;;;;;;5059616;28;20039;-83
2022/05/08 01:00:42;;;;;;;26.90;6.05;;;7.20;99.90;;;;;;5037562;28;20047;-82
2022/05/08 01:03:08;;;;;;;25.40;7.32;;;7.20;99.90;;;;;;5062218;28;20041;-80
2022/05/08 01:05:41;;;;;;;24.50;8.23;;;7.30;99.90;;;;;;5053784;28;20045;-80
2022/05/08 01:08:08;;;;;;;34.50;7.25;;;7.20;99.90;;;;;;5053134;28;20054;-81
2022/05/08 01:10:35;;;;;;;22.80;6.65;;;7.30;99.90;;;;;;5072292;28;20099;-82
2022/05/08 01:13:01;;;;;;;22.48;9.30;;;7.30;99.90;;;;;;5047389;28;20121;-82
2022/05/08 01:15:28;;;;;;;24.17;6.55;;;7.30;99.90;;;;;;5045692;28;20497;-82
2022/05/08 01:17:53;;;;;;;24.88;7.43;;;7.30;99.90;;;;;;5043259;28;20060;-82
2022/05/08 01:20:19;;;;;;;25.77;8.25;;;7.20;99.90;;;;;;5048116;28;20041;-82
2022/05/08 01:22:45;;;;;;;28.98;7.20;;;7.30;99.90;;;;;;5042361;28;20041;-82
2022/05/08 01:25:10;;;;;;;27.23;8.75;;;7.30;99.90;;;;;;5045030;28;20431;-82
2022/05/08 01:27:36;;;;;;;21.80;7.75;;;7.20;99.90;;;;;;5044450;28;20037;-82
2022/05/08 01:30:02;;;;;;;17.95;6.60;;;7.10;99.90;;;;;;5030333;28;20038;-81
2022/05/08 01:32:28;;;;;;;18.35;7.13;;;6.80;99.90;;;;;;5043518;28;20045;-82
2022/05/08 01:34:53;;;;;;;23.95;6.55;;;6.70;99.90;;;;;;5047548;28;20033;-82
2022/05/08 01:37:19;;;;;;;17.25;5.80;;;6.70;99.90;;;;;;5042760;28;20041;-78
2022/05/08 01:39:45;;;;;;;19.73;5.88;;;6.70;99.90;;;;;;5053884;28;20045;-81
2022/05/08 01:42:10;;;;;;;25.33;8.02;;;6.70;99.90;;;;;;5058468;28;20040;-82
2022/05/08 01:44:36;;;;;;;19.42;6.45;;;6.60;99.90;;;;;;5045294;28;20076;-80
2022/05/08 01:49:46;;;;;;;21.13;6.35;;;6.50;99.90;;;;;;5047447;28;20052;-82
2022/05/08 01:52:11;;;;;;;25.13;6.75;;;6.70;99.90;;;;;;5045123;28;20044;-82
2022/05/08 01:54:37;;;;;;;17.42;5.75;;;6.70;99.90;;;;;;5046321;28;20049;-81
2022/05/08 01:57:03;;;;;;;37.33;7.70;;;6.90;99.90;;;;;;5045904;28;20045;-81
2022/05/08 01:59:28;;;;;;;21.50;6.07;;;7.00;99.90;;;;;;5041938;28;20167;-83
2022/05/08 02:01:54;;;;;;;35.80;5.72;;;6.90;99.90;;;;;;5042459;28;20044;-82
2022/05/08 02:04:20;;;;;;;16.80;4.15;;;7.00;99.90;;;;;;5044301;28;20036;-79
2022/05/08 02:06:45;;;;;;;26.52;5.93;;;7.00;99.90;;;;;;5033879;28;20145;-81
2022/05/08 02:09:11;;;;;;;25.50;5.72;;;6.90;99.90;;;;;;5047845;28;20063;-82
2022/05/08 02:11:37;;;;;;;25.40;7.72;;;6.90;99.90;;;;;;5051884;28;20368;-81
2022/05/08 02:14:02;;;;;;;15.60;5.25;;;6.80;99.90;;;;;;5051541;28;20076;-78
2022/05/08 02:16:29;;;;;;;57.05;7.45;;;6.90;99.90;;;;;;5053190;28;20131;-80
2022/05/08 02:18:55;;;;;;;19.92;4.88;;;6.80;99.90;;;;;;5058474;28;20040;-81
2022/05/08 02:21:20;;;;;;;22.33;6.35;;;6.90;99.90;;;;;;5048278;28;20045;-82
2022/05/08 02:23:46;;;;;;;29.65;7.70;;;6.90;99.90;;;;;;5044268;28;20069;-80
2022/05/08 02:26:12;;;;;;;39.55;9.82;;;6.80;99.90;;;;;;5065765;28;20115;-81
2022/05/08 02:28:39;;;;;;;31.08;7.55;;;6.80;99.90;;;;;;5047295;28;20490;-77
2022/05/08 02:31:04;;;;;;;28.73;7.00;;;6.70;99.90;;;;;;5046738;28;20041;-80
2022/05/08 02:33:30;;;;;;;16.95;5.55;;;6.70;99.90;;;;;;5044049;28;22260;-81
2022/05/08 02:35:56;;;;;;;17.40;5.78;;;6.60;99.90;;;;;;5044708;28;20156;-80
2022/05/08 02:38:21;;;;;;;26.30;6.70;;;6.60;99.90;;;;;;5042613;28;20125;-81
2022/05/08 02:40:47;;;;;;;15.98;4.47;;;6.60;99.90;;;;;;5043462;28;20098;-82
2022/05/08 02:43:14;;;;;;;33.63;7.97;;;6.60;99.90;;;;;;5050304;28;20509;-82
2022/05/08 02:45:40;;;;;;;24.67;5.90;;;6.70;99.90;;;;;;5047977;28;20059;-81
2022/05/08 02:48:08;;;;;;;22.67;5.90;;;6.70;99.90;;;;;;5064142;28;20135;-81
2022/05/08 02:50:33;;;;;;;24.45;5.95;;;6.70;99.90;;;;;;5046380;28;20041;-83
2022/05/08 02:52:59;;;;;;;13.07;4.63;;;6.70;99.90;;;;;;5049451;28;20659;-82
2022/05/08 03:00:53;;;;;;;27.70;7.32;;;6.50;99.90;;;;;;5043273;28;20064;-82
2022/05/08 03:03:18;;;;;;;23.58;6.18;;;6.50;99.90;;;;;;5044953;28;20060;-82
2022/05/08 03:05:46;;;;;;;23.02;5.93;;;6.50;99.90;;;;;;5029213;28;20094;-82
2022/05/08 03:08:14;;;;;;;26.52;6.07;;;6.50;99.90;;;;;;5025451;28;20064;-80
2022/05/08 03:13:25;;;;;;;29.33;5.47;;;6.40;99.90;;;;;;5042043;28;20041;-80
2022/05/08 03:15:51;;;;;;;27.15;7.70;;;6.40;99.90;;;;;;5042152;28;20044;-81
2022/05/08 03:18:17;;;;;;;16.83;4.70;;;6.40;99.90;;;;;;5042899;28;20039;-82
2022/05/08 03:20:42;;;;;;;24.10;9.25;;;6.40;99.90;;;;;;5047294;28;20041;-82
2022/05/08 03:23:08;;;;;;;26.75;5.50;;;6.40;99.90;;;;;;5050902;28;20048;-83
2022/05/08 03:25:34;;;;;;;22.73;4.68;;;6.30;99.90;;;;;;5061301;28;20063;-81
2022/05/08 03:27:59;;;;;;;19.10;5.85;;;6.30;99.90;;;;;;5052761;28;20048;-81
2022/05/08 03:30:25;;;;;;;25.33;4.97;;;6.40;99.90;;;;;;5047209;28;20040;-81
2022/05/08 03:32:51;;;;;;;23.88;5.60;;;6.30;99.90;;;;;;5047707;28;20048;-82
2022/05/08 03:35:17;;;;;;;18.27;5.63;;;6.20;99.90;;;;;;5046645;28;20052;-81
2022/05/08 03:37:42;;;;;;;21.90;6.30;;;6.30;99.90;;;;;;5046887;28;20064;-81
2022/05/08 03:40:08;;;;;;;22.17;5.90;;;6.20;99.90;;;;;;5033619;28;20045;-80
2022/05/08 03:42:34;;;;;;;15.77;6.28;;;6.20;99.90;;;;;;5052237;28;20036;-81
2022/05/08 03:44:59;;;;;;;18.98;4.75;;;6.20;99.90;;;;;;5045825;28;20056;-81
2022/05/08 03:47:25;;;;;;;19.27;5.32;;;6.30;99.90;;;;;;5046115;28;20056;-81
2022/05/08 03:49:50;;;;;;;12.05;3.95;;;6.30;99.90;;;;;;5045517;28;20037;-80
2022/05/08 03:52:16;;;;;;;16.20;5.53;;;6.30;99.90;;;;;;5046424;28;20043;-81
2022/05/08 03:54:41;;;;;;;30.35;4.55;;;6.30;99.90;;;;;;5048820;28;20048;-81
2022/05/08 03:57:07;;;;;;;17.08;5.70;;;6.30;99.90;;;;;;5046753;28;20562;-77
2022/05/08 03:59:33;;;;;;;27.17;4.88;;;6.30;99.90;;;;;;5045033;28;20093;-82
2022/05/08 04:01:58;;;;;;;29.00;7.18;;;6.30;99.90;;;;;;5043449;28;20048;-83
2022/05/08 04:04:24;;;;;;;15.18;5.03;;;6.40;99.90;;;;;;5047921;28;20040;-81
2022/05/08 04:06:50;;;;;;;15.55;4.25;;;6.40;99.90;;;;;;5050267;28;20037;-80
2022/05/08 04:09:18;;;;;;;18.83;4.20;;;6.20;99.90;;;;;;5044556;28;20127;-80
2022/05/08 04:11:44;;;;;;;13.52;3.90;;;6.10;99.90;;;;;;5049460;28;20045;-82
2022/05/08 04:14:09;;;;;;;15.27;3.88;;;6.20;99.90;;;;;;5035902;28;20044;-82
2022/05/08 04:16:35;;;;;;;11.95;3.47;;;6.20;99.90;;;;;;5055093;28;20052;-82
2022/05/08 04:19:01;;;;;;;15.05;4.93;;;6.00;99.90;;;;;;5048425;28;20067;-80
2022/05/08 04:21:27;;;;;;;25.17;5.22;;;6.00;99.90;;;;;;5045896;28;20047;-82
2022/05/08 04:26:37;;;;;;;21.92;4.65;;;6.20;99.90;;;;;;5046000;28;20044;-81
2022/05/08 04:29:03;;;;;;;14.82;3.75;;;6.20;99.90;;;;;;5052606;28;20044;-77
2022/05/08 04:31:29;;;;;;;19.15;5.15;;;6.20;99.90;;;;;;5058758;28;20033;-82
2022/05/08 04:33:54;;;;;;;13.25;4.30;;;6.40;99.90;;;;;;5059252;28;20037;-81
2022/05/08 04:36:20;;;;;;;18.75;3.72;;;6.50;99.90;;;;;;5054922;28;20089;-84
2022/05/08 04:38:46;;;;;;;12.13;3.70;;;6.60;99.90;;;;;;5054867;28;20045;-81
2022/05/08 04:41:12;;;;;;;21.67;4.07;;;6.80;99.90;;;;;;5052038;28;20040;-81
2022/05/08 04:43:37;;;;;;;60.80;5.13;;;6.70;99.90;;;;;;5059449;28;20059;-79
2022/05/08 04:46:03;;;;;;;20.73;4.78;;;6.70;99.90;;;;;;5056825;28;20753;-81
2022/05/08 04:48:29;;;;;;;24.38;5.13;;;6.70;99.90;;;;;;5057838;28;20045;-83
2022/05/08 04:50:54;;;;;;;19.17;3.75;;;6.70;99.90;;;;;;5055694;28;20116;-82
2022/05/08 04:53:20;;;;;;;8.77;2.88;;;6.70;99.90;;;;;;5059262;28;20033;-81
2022/05/08 04:55:46;;;;;;;14.38;3.05;;;6.70;99.90;;;;;;5055211;28;20560;-81
2022/05/08 04:58:11;;;;;;;9.73;1.90;;;6.70;99.90;;;;;;5038153;28;20056;-81
2022/05/08 05:00:37;;;;;;;8.27;2.65;;;6.70;99.90;;;;;;5044448;28;20045;-82
2022/05/08 05:03:03;;;;;;;20.77;4.28;;;6.70;99.90;;;;;;5044987;28;20052;-82
2022/05/08 05:05:29;;;;;;;10.23;2.97;;;6.80;99.90;;;;;;5044878;28;20652;-81
2022/05/08 05:07:55;;;;;;;6.32;2.90;;;6.90;99.90;;;;;;5047799;28;20045;-82
2022/05/08 05:10:22;;;;;;;13.35;3.47;;;7.10;99.90;;;;;;5046153;28;20049;-83
2022/05/08 05:12:48;;;;;;;13.00;3.10;;;7.20;99.90;;;;;;5045465;28;20049;-81
2022/05/08 05:15:13;;;;;;;9.68;2.13;;;7.40;99.90;;;;;;5051479;28;20048;-80
2022/05/08 05:17:40;;;;;;;23.83;3.85;;;7.40;99.90;;;;;;5050525;28;20131;-78
2022/05/08 05:20:06;;;;;;;10.70;2.88;;;7.50;99.90;;;;;;5054845;28;20762;-80
2022/05/08 05:22:32;;;;;;;10.85;3.10;;;7.60;99.90;;;;;;5044068;28;20083;-80
2022/05/08 05:24:58;;;;;;;9.80;2.72;;;7.60;99.90;;;;;;5047573;28;20082;-79
2022/05/08 05:27:25;;;;;;;7.07;2.28;;;7.70;99.90;;;;;;5043163;28;20064;-80
2022/05/08 05:29:51;;;;;;;10.18;2.65;;;7.70;99.90;;;;;;5051472;28;20045;-79
2022/05/08 05:32:17;;;;;;;15.60;2.92;;;7.80;99.90;;;;;;5051490;28;20047;-80
2022/05/08 05:34:43;;;;;;;11.63;2.53;;;7.90;99.90;;;;;;5055435;28;20040;-79
2022/05/08 05:37:09;;;;;;;5.18;2.03;;;7.90;99.90;;;;;;5049520;28;20037;-78
2022/05/08 05:39:34;;;;;;;11.93;2.85;;;8.00;99.90;;;;;;5047879;28;20139;-80
2022/05/08 05:42:00;;;;;;;13.88;3.50;;;8.00;99.90;;;;;;5014588;28;20045;-79
2022/05/08 05:44:26;;;;;;;10.70;1.98;;;8.10;99.90;;;;;;5056701;28;20056;-78
2022/05/08 05:49:38;;;;;;;8.75;3.05;;;8.10;99.90;;;;;;5063370;28;20108;-75
2022/05/08 05:52:08;;;;;;;9.63;2.30;;;8.10;99.90;;;;;;5066514;28;20055;-78
2022/05/08 05:54:33;;;;;;;15.60;3.42;;;8.10;99.90;;;;;;5040785;28;20044;-80
2022/05/08 05:56:59;;;;;;;9.55;2.22;;;8.20;99.90;;;;;;5048419;28;20060;-80
2022/05/08 05:59:25;;;;;;;11.30;3.08;;;8.30;99.90;;;;;;5047561;28;20049;-77
2022/05/08 06:01:50;;;;;;;7.43;1.98;;;8.40;99.90;;;;;;5046399;28;20041;-79
2022/05/08 06:04:16;;;;;;;15.07;3.20;;;8.70;99.90;;;;;;5033456;28;20047;-80
2022/05/08 06:06:41;;;;;;;18.65;3.47;;;8.80;99.90;;;;;;5068488;28;20028;-78
2022/05/08 06:09:07;;;;;;;4.55;2.70;;;8.80;99.90;;;;;;5062748;28;20056;-78
2022/05/08 06:11:33;;;;;;;3.92;1.98;;;8.90;99.90;;;;;;5036855;28;20079;-80
2022/05/08 06:14:00;;;;;;;7.35;1.98;;;8.90;99.90;;;;;;5032056;28;20130;-80
2022/05/08 06:16:25;;;;;;;11.07;2.28;;;9.00;99.90;;;;;;5046739;28;20135;-78
2022/05/08 06:18:51;;;;;;;9.90;3.03;;;9.00;99.90;;;;;;5048280;28;20043;-80
2022/05/08 06:21:16;;;;;;;27.27;3.78;;;9.10;99.90;;;;;;5057102;28;20095;-77
2022/05/08 06:23:42;;;;;;;10.32;1.45;;;9.00;99.90;;;;;;5058319;28;20044;-76
2022/05/08 06:26:08;;;;;;;7.32;1.80;;;9.00;99.90;;;;;;5045561;28;20044;-76
2022/05/08 06:28:34;;;;;;;14.77;3.58;;;9.10;99.90;;;;;;5048253;28;20438;-77
2022/05/08 06:31:00;;;;;;;7.90;1.80;;;9.20;99.90;;;;;;5062062;28;20045;-80
2022/05/08 06:33:26;;;;;;;8.40;2.10;;;9.40;99.90;;;;;;5064836;28;20044;-79
2022/05/08 06:35:52;;;;;;;7.13;2.22;;;9.60;99.90;;;;;;5057479;28;20329;-78
2022/05/08 06:38:17;;;;;;;6.10;1.70;;;9.50;99.90;;;;;;5042272;28;20403;-78
2022/05/08 06:40:45;;;;;;;9.55;2.72;;;9.60;99.90;;;;;;5047497;28;20122;-79
2022/05/08 06:43:11;;;;;;;4.10;1.35;;;9.60;99.90;;;;;;5057925;28;20045;-79
2022/05/08 06:45:36;;;;;;;10.43;2.53;;;9.50;99.90;;;;;;5050791;28;20098;-80
2022/05/08 06:48:02;;;;;;;6.88;2.20;;;9.40;99.90;;;;;;5047896;28;20040;-79
2022/05/08 06:50:30;;;;;;;7.70;1.70;;;9.20;99.90;;;;;;5054746;28;20135;-79
2022/05/08 06:52:55;;;;;;;5.85;2.20;;;9.30;99.90;;;;;;5063143;28;20123;-81
2022/05/08 06:55:21;;;;;;;7.78;1.95;;;9.40;99.90;;;;;;5062924;28;20143;-82
2022/05/08 06:57:47;;;;;;;11.63;2.95;;;9.40;99.90;;;;;;5068628;28;20040;-80
2022/05/08 07:02:57;;;;;;;7.57;1.83;;;9.70;99.90;;;;;;5069675;28;20080;-83
2022/05/08 07:05:23;;;;;;;13.50;2.75;;;9.70;99.90;;;;;;5061382;28;20086;-79
2022/05/08 07:07:48;;;;;;;10.68;2.00;;;9.90;99.90;;;;;;5070083;28;20056;-80
2022/05/08 07:10:14;;;;;;;9.90;2.47;;;9.90;99.90;;;;;;5040339;28;20464;-81
2022/05/08 07:12:40;;;;;;;11.18;3.10;;;10.00;99.90;;;;;;5034990;28;20113;-80
2022/05/08 07:15:06;;;;;;;7.53;2.30;;;9.90;99.90;;;;;;5068182;28;20161;-79
2022/05/08 07:17:32;;;;;;;7.55;2.20;;;10.10;99.90;;;;;;5059434;28;20115;-79
2022/05/08 07:19:58;;;;;;;9.75;2.17;;;11.20;99.90;;;;;;5050717;28;20044;-80
2022/05/08 07:22:23;;;;;;;10.90;1.65;;;11.90;99.90;;;;;;5050909;28;20045;-79
2022/05/08 07:24:49;;;;;;;10.00;1.90;;;11.50;99.90;;;;;;5049770;28;20071;-80
2022/05/08 07:27:15;;;;;;;6.30;2.35;;;11.60;99.90;;;;;;5067529;28;20478;-80
2022/05/08 07:29:41;;;;;;;11.23;2.08;;;11.20;99.90;;;;;;5067486;28;20066;-81
2022/05/08 07:32:07;;;;;;;8.80;1.77;;;11.00;99.90;;;;;;5056994;28;20041;-80
2022/05/08 07:37:17;;;;;;;6.88;2.17;;;11.00;99.90;;;;;;5067017;28;20084;-80
2022/05/08 07:39:42;;;;;;;10.75;3.67;;;10.80;99.90;;;;;;5052398;28;20078;-83
2022/05/08 07:42:08;;;;;;;11.85;2.20;;;10.70;99.90;;;;;;5050108;28;20052;-79
2022/05/08 07:44:34;;;;;;;8.20;1.67;;;10.60;99.90;;;;;;5068521;28;20418;-82
2022/05/08 07:47:00;;;;;;;14.65;2.90;;;10.40;99.90;;;;;;5058887;28;20487;-80
2022/05/08 07:49:26;;;;;;;10.23;1.90;;;10.30;99.90;;;;;;5060051;28;20049;-81
2022/05/08 07:51:52;;;;;;;8.55;1.25;;;10.10;99.90;;;;;;5069229;28;20727;-83
2022/05/08 07:54:17;;;;;;;10.30;1.50;;;10.30;99.90;;;;;;5050143;28;20128;-82
2022/05/08 07:56:43;;;;;;;10.82;1.92;;;10.30;99.90;;;;;;5051998;28;20044;-80
2022/05/08 07:59:09;;;;;;;17.95;2.72;;;10.50;99.90;;;;;;5049677;28;20048;-80
2022/05/08 08:01:35;;;;;;;12.50;2.35;;;10.30;99.90;;;;;;5048614;28;20483;-81
2022/05/08 08:04:01;;;;;;;11.02;1.52;;;10.80;99.90;;;;;;5049295;28;20052;-80
2022/05/08 08:06:28;;;;;;;9.07;2.42;;;11.00;99.90;;;;;;5046165;28;20522;-80
2022/05/08 08:08:54;;;;;;;8.15;2.45;;;11.20;99.90;;;;;;5045205;28;20049;-83
2022/05/08 08:11:20;;;;;;;6.90;2.20;;;11.40;99.90;;;;;;5050053;28;20060;-77
2022/05/08 08:13:46;;;;;;;10.45;2.05;;;11.50;99.90;;;;;;5058975;28;20134;-77
2022/05/08 08:16:12;;;;;;;10.32;1.35;;;11.40;99.90;;;;;;5049309;28;20072;-77
2022/05/08 08:18:41;;;;;;;9.88;2.22;;;11.70;99.90;;;;;;5062851;28;20160;-77
2022/05/08 08:21:06;;;;;;;7.18;2.72;;;12.10;99.90;;;;;;5032364;28;20503;-77
2022/05/08 08:23:32;;;;;;;14.32;1.48;;;11.70;99.90;;;;;;5054253;28;20041;-75
2022/05/08 08:25:58;;;;;;;17.38;2.35;;;11.90;99.90;;;;;;5050334;28;20130;-80
2022/05/08 08:28:23;;;;;;;12.20;2.88;;;11.90;99.90;;;;;;5060656;28;20501;-81
2022/05/08 08:30:49;;;;;;;13.50;1.90;;;12.40;99.90;;;;;;5069239;28;20354;-81
2022/05/08 08:33:14;;;;;;;8.30;1.98;;;12.60;99.90;;;;;;5063965;28;20151;-81
2022/05/08 08:35:40;;;;;;;9.68;1.40;;;12.10;99.90;;;;;;5051377;28;20108;-80
2022/05/08 08:38:06;;;;;;;10.02;2.80;;;12.10;99.90;;;;;;5067217;28;20102;-82
2022/05/08 08:40:35;;;;;;;7.18;1.70;;;12.30;99.90;;;;;;5065210;28;20127;-77
2022/05/08 08:43:01;;;;;;;11.97;1.47;;;12.30;99.90;;;;;;5055300;28;20059;-78
2022/05/08 08:48:32;;;;;;;11.13;2.85;;;12.20;99.90;;;;;;5064921;28;20480;-77
2022/05/08 08:51:00;;;;;;;8.32;1.58;;;12.30;99.90;;;;;;5051448;28;20057;-77
2022/05/08 08:53:27;;;;;;;10.25;3.05;;;12.10;99.90;;;;;;5064137;28;20494;-76
2022/05/08 08:55:53;;;;;;;11.40;3.00;;;12.40;99.90;;;;;;5068259;28;20052;-78
2022/05/08 08:58:21;;;;;;;7.90;1.77;;;12.20;99.90;;;;;;5069930;28;20044;-76
2022/05/08 09:00:48;;;;;;;7.35;1.40;;;12.40;99.90;;;;;;5060860;28;20040;-78
2022/05/08 09:03:20;;;;;;;14.10;3.60;;;11.90;99.90;;;;;;5062266;28;20075;-77
2022/05/08 09:05:46;;;;;;;7.95;2.00;;;12.40;99.90;;;;;;5065858;28;20076;-77
2022/05/08 09:08:28;;;;;;;8.18;2.10;;;12.60;99.90;;;;;;5049328;28;20084;-77
2022/05/08 09:10:56;;;;;;;8.27;2.47;;;12.80;99.90;;;;;;5048473;28;20041;-77
2022/05/08 09:13:23;;;;;;;8.40;2.67;;;12.80;99.90;;;;;;5065995;28;20252;-75
2022/05/08 09:15:49;;;;;;;7.63;1.60;;;12.20;99.90;;;;;;5063377;28;20037;-81
2022/05/08 09:18:15;;;;;;;14.32;2.45;;;12.10;99.90;;;;;;5061002;28;20044;-86
2022/05/08 09:20:51;;;;;;;13.13;2.58;;;12.30;99.90;;;;;;5042635;28;20390;-81
2022/05/08 09:23:21;;;;;;;9.27;2.13;;;12.70;99.90;;;;;;5061721;28;20037;-82
2022/05/08 09:25:55;;;;;;;7.07;1.73;;;12.80;99.90;;;;;;5064394;28;20036;-83
2022/05/08 09:28:29;;;;;;;16.83;3.20;;;12.80;99.90;;;;;;5049501;28;20046;-79
2022/05/08 09:31:15;;;;;;;11.07;3.03;;;12.30;99.90;;;;;;5067949;28;20457;-77
2022/05/08 09:33:44;;;;;;;10.68;2.08;;;12.50;99.90;;;;;;5061526;28;20124;-77
2022/05/08 09:36:20;;;;;;;6.30;2.33;;;12.30;99.90;;;;;;5056847;28;20053;-76
2022/05/08 09:38:53;;;;;;;10.75;2.10;;;12.60;99.90;;;;;;5053399;28;20070;-76
2022/05/08 09:41:34;;;;;;;8.80;1.80;;;12.70;99.90;;;;;;5032475;28;20479;-77
2022/05/08 09:44:13;;;;;;;10.18;1.67;;;12.80;99.90;;;;;;5031399;28;20503;-78
2022/05/08 09:46:43;;;;;;;14.93;3.92;;;12.70;99.90;;;;;;5050870;28;20067;-76
2022/05/08 09:49:11;;;;;;;6.80;2.10;;;13.00;99.90;;;;;;5062176;28;20079;-77
2022/05/08 09:51:38;;;;;;;7.25;1.80;;;12.80;99.90;;;;;;5043651;28;20049;-78
2022/05/08 09:54:04;;;;;;;14.07;3.40;;;13.30;99.90;;;;;;5064629;28;20131;-78
2022/05/08 09:56:31;;;;;;;6.03;2.03;;;13.30;99.90;;;;;;5050257;28;20124;-78
2022/05/08 09:58:57;;;;;;;7.88;2.17;;;13.20;99.90;;;;;;5050608;28;20047;-79
2022/05/08 10:01:24;;;;;;;6.43;2.50;;;13.10;99.90;;;;;;5046220;28;20593;-80
2022/05/08 10:03:51;;;;;;;7.53;1.65;;;12.80;99.90;;;;;;5047152;28;20033;-81
2022/05/08 10:06:18;;;;;;;11.10;2.75;;;13.20;99.90;;;;;;5047781;28;20052;-78
2022/05/08 10:08:46;;;;;;;10.75;2.20;;;13.30;99.90;;;;;;5051858;28;20068;-79
2022/05/08 10:14:05;;;;;;;8.50;2.72;;;13.20;99.90;;;;;;5048186;28;20085;-79
2022/05/08 10:16:47;;;;;;;13.15;1.75;;;13.50;99.90;;;;;;5047528;28;20149;-79
2022/05/08 10:19:24;;;;;;;8.25;1.98;;;13.70;99.90;;;;;;5047733;28;20491;-81
2022/05/08 10:24:31;;;;;;;9.48;1.95;;;13.20;99.90;;;;;;5053849;28;20482;-79
2022/05/08 10:27:14;;;;;;;7.90;2.53;;;13.50;99.90;;;;;;5057700;28;20045;-79
2022/05/08 10:30:02;;;;;;;10.65;2.50;;;13.50;99.90;;;;;;5057190;28;20190;-81
2022/05/08 10:32:31;;;;;;;10.63;2.20;;;13.80;99.90;;;;;;5058542;28;20064;-75
2022/05/08 10:35:17;;;;;;;12.85;2.63;;;13.60;99.90;;;;;;5045162;28;20088;-80
2022/05/08 10:37:46;;;;;;;6.18;1.42;;;13.70;99.90;;;;;;5053407;28;20049;-80
2022/05/08 10:40:23;;;;;;;12.20;1.65;;;13.80;99.90;;;;;;5051184;28;20107;-80
2022/05/08 10:42:56;;;;;;;8.68;2.28;;;13.70;99.90;;;;;;5045314;28;20049;-80
2022/05/08 10:45:30;;;;;;;10.80;1.90;;;13.40;99.90;;;;;;5043357;28;20045;-81
2022/05/08 10:48:26;;;;;;;10.13;3.40;;;13.70;99.90;;;;;;5046124;28;20133;-82
2022/05/08 10:50:57;;;;;;;7.90;2.95;;;13.30;99.90;;;;;;5043403;28;20132;-82
2022/05/08 10:53:28;;;;;;;9.95;2.42;;;13.60;99.90;;;;;;5045671;28;20088;-81
2022/05/08 10:56:06;;;;;;;9.20;2.33;;;13.70;99.90;;;;;;5044689;28;20411;-82
2022/05/08 10:58:33;;;;;;;9.45;2.78;;;13.90;99.90;;;;;;5044792;28;20048;-82
2022/05/08 11:01:02;;;;;;;10.70;1.85;;;14.00;99.90;;;;;;5045004;28;20080;-84
2022/05/08 11:03:29;;;;;;;8.38;2.75;;;13.90;99.90;;;;;;5044390;28;20037;-81
2022/05/08 11:05:54;;;;;;;9.38;2.50;;;13.70;99.90;;;;;;5028417;28;20045;-82
2022/05/08 11:08:25;;;;;;;11.02;2.00;;;13.80;99.90;;;;;;5045378;28;20060;-80
2022/05/08 11:11:02;;;;;;;8.73;2.10;;;13.80;99.90;;;;;;5045898;28;20057;-80
2022/05/08 11:13:43;;;;;;;12.73;2.03;;;13.80;99.90;;;;;;5046006;28;20511;-83
2022/05/08 11:16:09;;;;;;;8.50;2.72;;;13.70;99.90;;;;;;5046873;28;20368;-81
2022/05/08 11:18:35;;;;;;;11.50;2.30;;;13.80;99.90;;;;;;5047287;28;20049;-82
2022/05/08 11:21:03;;;;;;;6.57;1.80;;;14.10;99.90;;;;;;5044267;28;20051;-80
2022/05/08 11:23:30;;;;;;;10.43;1.80;;;14.20;99.90;;;;;;5044749;28;20040;-83
2022/05/08 11:25:59;;;;;;;13.05;3.50;;;14.10;99.90;;;;;;5046204;28;20517;-81
2022/05/08 11:28:26;;;;;;;6.28;2.05;;;14.00;99.90;;;;;;5028178;28;20086;-82
2022/05/08 11:30:53;;;;;;;6.22;1.95;;;14.20;99.90;;;;;;5044844;28;20060;-81
2022/05/08 11:36:25;;;;;;;9.30;1.85;;;14.20;99.90;;;;;;5045220;28;20045;-81
2022/05/08 11:38:59;;;;;;;6.80;1.42;;;13.80;99.90;;;;;;5045187;28;20486;-81
2022/05/08 11:41:27;;;;;;;11.55;1.98;;;13.80;99.90;;;;;;5031251;28;20043;-81
2022/05/08 11:43:58;;;;;;;6.35;1.70;;;14.00;99.90;;;;;;5049057;28;20041;-81
2022/05/08 11:46:32;;;;;;;;;;;14.10;99.90;;;;;;5048368;28;20051;-79
2022/05/08 11:48:58;;;;;;;8.55;1.98;;;14.20;99.90;;;;;;5047395;28;19925;-82
2022/05/08 11:51:23;;;;;;;13.27;2.92;;;14.60;99.90;;;;;;5048523;28;20098;-80
2022/05/08 11:53:51;;;;;;;5.70;1.55;;;14.40;99.90;;;;;;5047442;28;20044;-82
2022/05/08 11:56:33;;;;;;;11.90;2.10;;;14.80;99.90;;;;;;5049609;28;20045;-82
2022/05/08 11:59:06;;;;;;;10.98;2.33;;;14.50;99.90;;;;;;5049125;28;20052;-82
2022/05/08 12:01:33;;;;;;;9.35;2.72;;;14.50;99.90;;;;;;5047828;28;20487;-79
2022/05/08 12:04:28;;;;;;;6.95;1.35;;;14.70;99.90;;;;;;5049275;28;20056;-82
2022/05/08 12:07:14;;;;;;;4.75;2.65;;;14.10;99.90;;;;;;5048834;28;20049;-81
2022/05/08 12:10:00;;;;;;;4.25;1.42;;;14.30;99.90;;;;;;5048593;28;20160;-81
2022/05/08 12:12:29;;;;;;;8.07;1.75;;;14.60;99.90;;;;;;5047843;28;20208;-81
2022/05/08 12:15:08;;;;;;;6.78;1.65;;;14.20;99.90;;;;;;5047861;28;20041;-80
2022/05/08 12:17:39;;;;;;;5.68;1.10;;;14.40;99.90;;;;;;5048740;28;20045;-81
2022/05/08 12:20:26;;;;;;;5.32;1.65;;;14.70;99.90;;;;;;5047751;28;20049;-82
2022/05/08 12:22:58;;;;;;;7.70;1.63;;;14.80;99.90;;;;;;5048341;28;20048;-81
2022/05/08 12:25:24;;;;;;;8.88;1.42;;;14.80;99.90;;;;;;5048274;28;20037;-83
2022/05/08 12:27:50;;;;;;;8.77;1.73;;;14.70;99.90;;;;;;5047122;28;20032;-80
2022/05/08 12:30:16;;;;;;;6.43;1.52;;;14.70;99.90;;;;;;5047202;28;20099;-81
2022/05/08 12:32:42;;;;;;;6.25;2.05;;;14.40;99.90;;;;;;5047765;28;20045;-79
2022/05/08 12:35:12;;;;;;;20.15;2.03;;;14.30;99.90;;;;;;5048067;28;20443;-81
2022/05/08 12:37:38;;;;;;;5.35;1.65;;;14.80;99.90;;;;;;5046847;28;20033;-80
2022/05/08 12:40:06;;;;;;;8.85;1.80;;;14.80;99.90;;;;;;5048489;28;20049;-81
2022/05/08 12:42:31;;;;;;;3.88;1.77;;;14.70;99.90;;;;;;5046632;28;20049;-81
2022/05/08 12:44:57;;;;;;;10.63;3.72;;;14.60;99.90;;;;;;5029449;28;20218;-80
2022/05/08 12:47:22;;;;;;;11.52;2.47;;;15.00;99.90;;;;;;5046774;28;20099;-79
2022/05/08 12:49:49;;;;;;;4.30;1.75;;;14.60;99.90;;;;;;5047986;28;20041;-80
2022/05/08 12:52:14;;;;;;;6.72;1.38;;;14.40;99.90;;;;;;5045988;28;20045;-80
2022/05/08 12:54:40;;;;;;;14.88;2.13;;;14.50;99.90;;;;;;5046227;28;20055;-81
2022/05/08 12:57:08;;;;;;;5.88;1.73;;;14.50;99.90;;;;;;5051575;28;20041;-83
2022/05/08 12:59:47;;;;;;;13.60;2.75;;;14.90;99.90;;;;;;5047166;28;20214;-82
2022/05/08 13:02:20;;;;;;;6.97;1.50;;;15.00;99.90;;;;;;5046631;28;20037;-82
2022/05/08 13:04:50;;;;;;;7.13;1.67;;;15.00;99.90;;;;;;5047442;28;20088;-80
2022/05/08 13:07:15;;;;;;;9.57;1.58;;;15.00;99.90;;;;;;5047330;28;20049;-82
2022/05/08 13:09:41;;;;;;;11.25;1.80;;;14.70;99.90;;;;;;5047072;28;20045;-82
2022/05/08 13:12:07;;;;;;;9.32;1.88;;;15.00;99.90;;;;;;5046431;28;20114;-83
2022/05/08 13:14:34;;;;;;;8.32;2.03;;;15.00;99.90;;;;;;5046637;28;20067;-80
2022/05/08 13:17:01;;;;;;;10.10;2.25;;;14.60;99.90;;;;;;5047235;28;20411;-81
2022/05/08 13:19:29;;;;;;;9.73;2.42;;;14.60;99.90;;;;;;5046150;28;20037;-81
2022/05/08 13:21:55;;;;;;;9.40;2.00;;;14.80;99.90;;;;;;5047149;28;20511;-81